sensor_id;sensor_type;location;lat;lon;timestamp;pressure;altitude;pressure_sealevel;temperature
69545;BMP180;56766;52.260;20.746;2023-11-18T00:01:50;100476.60;;;0.40
69545;BMP180;56766;52.260;20.746;2023-11-18T00:04:16;100470.60;;;0.40
69545;BMP180;56766;52.260;20.746;2023-11-18T00:06:44;100471.20;;;0.40
69545;BMP180;56766;52.260;20.746;2023-11-18T00:09:12;100470.80;;;0.40
69545;BMP180;56766;52.260;20.746;2023-11-18T00:11:40;100472.00;;;0.40
69545;BMP180;56766;52.260;20.746;2023-11-18T00:14:09;100476.00;;;0.40
69545;BMP180;56766;52.260;20.746;2023-11-18T00:16:39;100478.60;;;0.40
69545;BMP180;56766;52.260;20.746;2023-11-18T00:19:06;100480.20;;;0.40
69545;BMP180;56766;52.260;20.746;2023-11-18T00:21:32;100488.40;;;0.40
69545;BMP180;56766;52.260;20.746;2023-11-18T00:23:59;100488.60;;;0.40
69545;BMP180;56766;52.260;20.746;2023-11-18T00:26:26;100490.40;;;0.40
69545;BMP180;56766;52.260;20.746;2023-11-18T00:28:52;100494.40;;;0.40
69545;BMP180;56766;52.260;20.746;2023-11-18T00:31:19;100491.00;;;0.40
69545;BMP180;56766;52.260;20.746;2023-11-18T00:33:46;100499.20;;;0.40
69545;BMP180;56766;52.260;20.746;2023-11-18T00:36:13;100499.00;;;0.40
69545;BMP180;56766;52.260;20.746;2023-11-18T00:38:40;100497.60;;;0.40
69545;BMP180;56766;52.260;20.746;2023-11-18T00:41:06;100500.20;;;0.40
69545;BMP180;56766;52.260;20.746;2023-11-18T00:43:33;100508.00;;;0.40
69545;BMP180;56766;52.260;20.746;2023-11-18T00:46:00;100507.20;;;0.40
69545;BMP180;56766;52.260;20.746;2023-11-18T00:48:27;100503.40;;;0.40
69545;BMP180;56766;52.260;20.746;2023-11-18T00:50:54;100506.00;;;0.40
69545;BMP180;56766;52.260;20.746;2023-11-18T00:53:22;100509.40;;;0.40
69545;BMP180;56766;52.260;20.746;2023-11-18T00:55:49;100513.80;;;0.40
69545;BMP180;56766;52.260;20.746;2023-11-18T00:58:16;100517.00;;;0.40
69545;BMP180;56766;52.260;20.746;2023-11-18T01:00:43;100519.00;;;0.40
69545;BMP180;56766;52.260;20.746;2023-11-18T01:03:10;100520.20;;;0.40
69545;BMP180;56766;52.260;20.746;2023-11-18T01:05:36;100521.00;;;0.40
69545;BMP180;56766;52.260;20.746;2023-11-18T01:08:04;100517.80;;;0.40
69545;BMP180;56766;52.260;20.746;2023-11-18T01:10:31;100520.20;;;0.40
69545;BMP180;56766;52.260;20.746;2023-11-18T01:12:58;100517.60;;;0.40
69545;BMP180;56766;52.260;20.746;2023-11-18T01:15:25;100515.00;;;0.40
69545;BMP180;56766;52.260;20.746;2023-11-18T01:17:51;100513.60;;;0.40
69545;BMP180;56766;52.260;20.746;2023-11-18T01:20:18;100515.00;;;0.40
69545;BMP180;56766;52.260;20.746;2023-11-18T01:22:48;100514.40;;;0.40
69545;BMP180;56766;52.260;20.746;2023-11-18T01:25:15;100514.40;;;0.38
69545;BMP180;56766;52.260;20.746;2023-11-18T01:27:45;100518.60;;;0.38
69545;BMP180;56766;52.260;20.746;2023-11-18T01:30:14;100520.20;;;0.38
69545;BMP180;56766;52.260;20.746;2023-11-18T01:32:41;100523.60;;;0.40
69545;BMP180;56766;52.260;20.746;2023-11-18T01:35:09;100515.00;;;0.40
69545;BMP180;56766;52.260;20.746;2023-11-18T01:37:38;100512.60;;;0.40
69545;BMP180;56766;52.260;20.746;2023-11-18T01:40:06;100517.00;;;0.40
69545;BMP180;56766;52.260;20.746;2023-11-18T01:42:34;100511.60;;;0.40
69545;BMP180;56766;52.260;20.746;2023-11-18T01:45:03;100509.00;;;0.40
69545;BMP180;56766;52.260;20.746;2023-11-18T01:47:32;100507.80;;;0.40
69545;BMP180;56766;52.260;20.746;2023-11-18T01:50:01;100506.40;;;0.40
69545;BMP180;56766;52.260;20.746;2023-11-18T01:52:30;100504.20;;;0.40
69545;BMP180;56766;52.260;20.746;2023-11-18T01:54:59;100504.20;;;0.40
69545;BMP180;56766;52.260;20.746;2023-11-18T01:57:26;100504.00;;;0.40
69545;BMP180;56766;52.260;20.746;2023-11-18T01:59:54;100506.60;;;0.40
69545;BMP180;56766;52.260;20.746;2023-11-18T02:02:22;100510.20;;;0.40
69545;BMP180;56766;52.260;20.746;2023-11-18T02:04:52;100512.00;;;0.40
69545;BMP180;56766;52.260;20.746;2023-11-18T02:07:19;100515.20;;;0.40
69545;BMP180;56766;52.260;20.746;2023-11-18T02:09:47;100514.80;;;0.40
69545;BMP180;56766;52.260;20.746;2023-11-18T02:15:09;100514.40;;;0.36
69545;BMP180;56766;52.260;20.746;2023-11-18T02:17:41;100514.80;;;0.32
69545;BMP180;56766;52.260;20.746;2023-11-18T02:20:11;100523.00;;;0.32
69545;BMP180;56766;52.260;20.746;2023-11-18T02:22:47;100522.80;;;0.30
69545;BMP180;56766;52.260;20.746;2023-11-18T02:25:17;100520.80;;;0.30
69545;BMP180;56766;52.260;20.746;2023-11-18T02:27:46;100524.80;;;0.30
69545;BMP180;56766;52.260;20.746;2023-11-18T02:30:14;100527.80;;;0.30
69545;BMP180;56766;52.260;20.746;2023-11-18T02:35:55;100530.00;;;0.30
69545;BMP180;56766;52.260;20.746;2023-11-18T02:38:31;100531.60;;;0.30
69545;BMP180;56766;52.260;20.746;2023-11-18T02:41:10;100533.60;;;0.30
69545;BMP180;56766;52.260;20.746;2023-11-18T02:43:40;100538.40;;;0.30
69545;BMP180;56766;52.260;20.746;2023-11-18T02:46:09;100540.60;;;0.30
69545;BMP180;56766;52.260;20.746;2023-11-18T02:48:38;100539.20;;;0.30
69545;BMP180;56766;52.260;20.746;2023-11-18T02:51:05;100541.20;;;0.30
69545;BMP180;56766;52.260;20.746;2023-11-18T02:53:36;100544.80;;;0.30
69545;BMP180;56766;52.260;20.746;2023-11-18T02:56:03;100546.40;;;0.30
69545;BMP180;56766;52.260;20.746;2023-11-18T02:58:32;100552.00;;;0.30
69545;BMP180;56766;52.260;20.746;2023-11-18T03:00:59;100552.40;;;0.30
69545;BMP180;56766;52.260;20.746;2023-11-18T03:03:26;100552.00;;;0.30
69545;BMP180;56766;52.260;20.746;2023-11-18T03:05:55;100561.60;;;0.30
69545;BMP180;56766;52.260;20.746;2023-11-18T03:08:22;100561.20;;;0.30
69545;BMP180;56766;52.260;20.746;2023-11-18T03:10:49;100560.40;;;0.30
69545;BMP180;56766;52.260;20.746;2023-11-18T03:13:18;100561.60;;;0.30
69545;BMP180;56766;52.260;20.746;2023-11-18T03:15:45;100561.60;;;0.30
69545;BMP180;56766;52.260;20.746;2023-11-18T03:18:15;100564.80;;;0.30
69545;BMP180;56766;52.260;20.746;2023-11-18T03:20:42;100568.00;;;0.30
69545;BMP180;56766;52.260;20.746;2023-11-18T03:23:09;100576.60;;;0.30
69545;BMP180;56766;52.260;20.746;2023-11-18T03:25:36;100580.60;;;0.30
69545;BMP180;56766;52.260;20.746;2023-11-18T03:28:04;100578.00;;;0.30
69545;BMP180;56766;52.260;20.746;2023-11-18T03:30:33;100576.60;;;0.30
69545;BMP180;56766;52.260;20.746;2023-11-18T03:33:03;100581.20;;;0.30
69545;BMP180;56766;52.260;20.746;2023-11-18T03:35:30;100581.60;;;0.30
69545;BMP180;56766;52.260;20.746;2023-11-18T03:37:57;100590.80;;;0.30
69545;BMP180;56766;52.260;20.746;2023-11-18T03:40:24;100591.40;;;0.30
69545;BMP180;56766;52.260;20.746;2023-11-18T03:42:51;100587.40;;;0.30
69545;BMP180;56766;52.260;20.746;2023-11-18T03:45:19;100598.40;;;0.30
69545;BMP180;56766;52.260;20.746;2023-11-18T03:47:47;100597.40;;;0.30
69545;BMP180;56766;52.260;20.746;2023-11-18T03:50:17;100597.20;;;0.30
69545;BMP180;56766;52.260;20.746;2023-11-18T03:52:43;100601.40;;;0.30
69545;BMP180;56766;52.260;20.746;2023-11-18T03:55:10;100604.20;;;0.30
69545;BMP180;56766;52.260;20.746;2023-11-18T03:57:37;100603.00;;;0.30
69545;BMP180;56766;52.260;20.746;2023-11-18T04:00:05;100606.60;;;0.30
69545;BMP180;56766;52.260;20.746;2023-11-18T04:02:32;100606.40;;;0.30
69545;BMP180;56766;52.260;20.746;2023-11-18T04:05:02;100607.20;;;0.30
69545;BMP180;56766;52.260;20.746;2023-11-18T04:07:30;100611.00;;;0.30
69545;BMP180;56766;52.260;20.746;2023-11-18T04:09:56;100616.40;;;0.30
69545;BMP180;56766;52.260;20.746;2023-11-18T04:12:23;100617.20;;;0.30
69545;BMP180;56766;52.260;20.746;2023-11-18T04:14:50;100624.40;;;0.30
69545;BMP180;56766;52.260;20.746;2023-11-18T04:17:17;100625.80;;;0.30
69545;BMP180;56766;52.260;20.746;2023-11-18T04:19:43;100627.40;;;0.30
69545;BMP180;56766;52.260;20.746;2023-11-18T04:22:10;100628.20;;;0.30
69545;BMP180;56766;52.260;20.746;2023-11-18T04:24:37;100626.00;;;0.28
69545;BMP180;56766;52.260;20.746;2023-11-18T04:27:04;100627.60;;;0.28
69545;BMP180;56766;52.260;20.746;2023-11-18T04:29:31;100623.20;;;0.28
69545;BMP180;56766;52.260;20.746;2023-11-18T04:31:57;100625.80;;;0.24
69545;BMP180;56766;52.260;20.746;2023-11-18T04:34:26;100629.20;;;0.22
69545;BMP180;56766;52.260;20.746;2023-11-18T04:36:52;100629.80;;;0.20
69545;BMP180;56766;52.260;20.746;2023-11-18T04:39:19;100633.40;;;0.20
69545;BMP180;56766;52.260;20.746;2023-11-18T04:41:47;100632.00;;;0.22
69545;BMP180;56766;52.260;20.746;2023-11-18T04:44:13;100634.60;;;0.20
69545;BMP180;56766;52.260;20.746;2023-11-18T04:46:42;100637.80;;;0.20
69545;BMP180;56766;52.260;20.746;2023-11-18T04:49:10;100641.40;;;0.20
69545;BMP180;56766;52.260;20.746;2023-11-18T04:51:37;100646.20;;;0.28
69545;BMP180;56766;52.260;20.746;2023-11-18T04:54:04;100644.60;;;0.20
69545;BMP180;56766;52.260;20.746;2023-11-18T04:56:34;100642.20;;;0.20
69545;BMP180;56766;52.260;20.746;2023-11-18T04:59:04;100646.20;;;0.20
69545;BMP180;56766;52.260;20.746;2023-11-18T05:01:32;100645.60;;;0.20
69545;BMP180;56766;52.260;20.746;2023-11-18T05:03:59;100646.80;;;0.20
69545;BMP180;56766;52.260;20.746;2023-11-18T05:06:26;100644.80;;;0.20
69545;BMP180;56766;52.260;20.746;2023-11-18T05:08:53;100650.80;;;0.20
69545;BMP180;56766;52.260;20.746;2023-11-18T05:11:21;100649.00;;;0.20
69545;BMP180;56766;52.260;20.746;2023-11-18T05:13:47;100654.40;;;0.20
69545;BMP180;56766;52.260;20.746;2023-11-18T05:16:14;100656.60;;;0.20
69545;BMP180;56766;52.260;20.746;2023-11-18T05:18:41;100655.80;;;0.20
69545;BMP180;56766;52.260;20.746;2023-11-18T05:21:07;100659.20;;;0.20
69545;BMP180;56766;52.260;20.746;2023-11-18T05:23:34;100660.20;;;0.20
69545;BMP180;56766;52.260;20.746;2023-11-18T05:26:05;100654.40;;;0.16
69545;BMP180;56766;52.260;20.746;2023-11-18T05:28:33;100664.00;;;0.16
69545;BMP180;56766;52.260;20.746;2023-11-18T05:31:00;100667.00;;;0.12
69545;BMP180;56766;52.260;20.746;2023-11-18T05:33:28;100666.60;;;0.16
69545;BMP180;56766;52.260;20.746;2023-11-18T05:35:56;100670.80;;;0.12
69545;BMP180;56766;52.260;20.746;2023-11-18T05:38:23;100679.20;;;0.10
69545;BMP180;56766;52.260;20.746;2023-11-18T05:40:53;100683.20;;;0.12
69545;BMP180;56766;52.260;20.746;2023-11-18T05:43:26;100687.20;;;0.10
69545;BMP180;56766;52.260;20.746;2023-11-18T05:45:56;100698.20;;;0.10
69545;BMP180;56766;52.260;20.746;2023-11-18T05:48:47;100703.60;;;0.12
69545;BMP180;56766;52.260;20.746;2023-11-18T05:51:23;100711.80;;;0.14
69545;BMP180;56766;52.260;20.746;2023-11-18T05:53:51;100709.20;;;0.12
69545;BMP180;56766;52.260;20.746;2023-11-18T05:56:19;100713.80;;;0.16
69545;BMP180;56766;52.260;20.746;2023-11-18T05:58:48;100713.40;;;0.10
69545;BMP180;56766;52.260;20.746;2023-11-18T06:01:17;100717.40;;;0.12
69545;BMP180;56766;52.260;20.746;2023-11-18T06:03:44;100725.00;;;0.10
69545;BMP180;56766;52.260;20.746;2023-11-18T06:06:15;100727.00;;;0.10
69545;BMP180;56766;52.260;20.746;2023-11-18T06:08:43;100729.80;;;0.10
69545;BMP180;56766;52.260;20.746;2023-11-18T06:11:12;100729.20;;;0.10
69545;BMP180;56766;52.260;20.746;2023-11-18T06:13:53;100726.80;;;0.10
69545;BMP180;56766;52.260;20.746;2023-11-18T06:16:33;100733.60;;;0.10
69545;BMP180;56766;52.260;20.746;2023-11-18T06:18:59;100737.40;;;0.10
69545;BMP180;56766;52.260;20.746;2023-11-18T06:21:27;100741.60;;;0.10
69545;BMP180;56766;52.260;20.746;2023-11-18T06:24:03;100743.40;;;0.16
69545;BMP180;56766;52.260;20.746;2023-11-18T06:26:33;100755.40;;;0.20
69545;BMP180;56766;52.260;20.746;2023-11-18T06:29:07;100759.20;;;0.20
69545;BMP180;56766;52.260;20.746;2023-11-18T06:31:34;100759.60;;;0.20
69545;BMP180;56766;52.260;20.746;2023-11-18T06:34:00;100763.20;;;0.20
69545;BMP180;56766;52.260;20.746;2023-11-18T06:36:30;100769.00;;;0.20
69545;BMP180;56766;52.260;20.746;2023-11-18T06:38:57;100771.20;;;0.20
69545;BMP180;56766;52.260;20.746;2023-11-18T06:41:25;100774.80;;;0.20
69545;BMP180;56766;52.260;20.746;2023-11-18T06:44:00;100780.80;;;0.20
69545;BMP180;56766;52.260;20.746;2023-11-18T06:46:32;100778.80;;;0.20
69545;BMP180;56766;52.260;20.746;2023-11-18T06:49:07;100779.20;;;0.20
69545;BMP180;56766;52.260;20.746;2023-11-18T06:51:37;100784.40;;;0.22
69545;BMP180;56766;52.260;20.746;2023-11-18T06:54:05;100788.60;;;0.26
69545;BMP180;56766;52.260;20.746;2023-11-18T06:56:37;100793.00;;;0.28
69545;BMP180;56766;52.260;20.746;2023-11-18T06:59:06;100799.00;;;0.30
69545;BMP180;56766;52.260;20.746;2023-11-18T07:01:41;100802.40;;;0.30
69545;BMP180;56766;52.260;20.746;2023-11-18T07:04:09;100801.00;;;0.30
69545;BMP180;56766;52.260;20.746;2023-11-18T07:06:37;100794.80;;;0.30
69545;BMP180;56766;52.260;20.746;2023-11-18T07:09:09;100800.20;;;0.32
69545;BMP180;56766;52.260;20.746;2023-11-18T07:11:54;100807.00;;;0.40
69545;BMP180;56766;52.260;20.746;2023-11-18T07:14:22;100805.60;;;0.40
69545;BMP180;56766;52.260;20.746;2023-11-18T07:16:49;100813.00;;;0.40
69545;BMP180;56766;52.260;20.746;2023-11-18T07:19:15;100813.00;;;0.40
69545;BMP180;56766;52.260;20.746;2023-11-18T07:21:47;100819.60;;;0.42
69545;BMP180;56766;52.260;20.746;2023-11-18T07:24:13;100821.00;;;0.50
69545;BMP180;56766;52.260;20.746;2023-11-18T07:26:40;100823.60;;;0.50
69545;BMP180;56766;52.260;20.746;2023-11-18T07:29:07;100826.40;;;0.50
69545;BMP180;56766;52.260;20.746;2023-11-18T07:31:34;100825.80;;;0.52
69545;BMP180;56766;52.260;20.746;2023-11-18T07:34:05;100823.80;;;0.60
69545;BMP180;56766;52.260;20.746;2023-11-18T07:36:33;100819.40;;;0.60
69545;BMP180;56766;52.260;20.746;2023-11-18T07:39:00;100832.80;;;0.70
69545;BMP180;56766;52.260;20.746;2023-11-18T07:41:28;100836.20;;;0.72
69545;BMP180;56766;52.260;20.746;2023-11-18T07:43:57;100843.40;;;0.78
69545;BMP180;56766;52.260;20.746;2023-11-18T07:46:25;100843.80;;;0.80
69545;BMP180;56766;52.260;20.746;2023-11-18T07:48:52;100853.60;;;0.90
69545;BMP180;56766;52.260;20.746;2023-11-18T07:51:21;100854.40;;;0.98
69545;BMP180;56766;52.260;20.746;2023-11-18T07:53:51;100858.60;;;1.00
69545;BMP180;56766;52.260;20.746;2023-11-18T07:56:19;100855.00;;;1.04
69545;BMP180;56766;52.260;20.746;2023-11-18T07:58:48;100860.20;;;1.10
69545;BMP180;56766;52.260;20.746;2023-11-18T08:01:15;100872.00;;;1.10
69545;BMP180;56766;52.260;20.746;2023-11-18T08:03:45;100874.80;;;1.10
69545;BMP180;56766;52.260;20.746;2023-11-18T08:06:11;100875.40;;;1.10
69545;BMP180;56766;52.260;20.746;2023-11-18T08:08:39;100879.60;;;1.10
69545;BMP180;56766;52.260;20.746;2023-11-18T08:11:11;100882.00;;;1.10
69545;BMP180;56766;52.260;20.746;2023-11-18T08:13:41;100876.60;;;1.06
69545;BMP180;56766;52.260;20.746;2023-11-18T08:16:07;100878.60;;;1.10
69545;BMP180;56766;52.260;20.746;2023-11-18T08:18:35;100888.80;;;1.00
69545;BMP180;56766;52.260;20.746;2023-11-18T08:21:02;100898.80;;;1.00
69545;BMP180;56766;52.260;20.746;2023-11-18T08:23:33;100898.00;;;1.00
69545;BMP180;56766;52.260;20.746;2023-11-18T08:25:59;100896.40;;;1.00
69545;BMP180;56766;52.260;20.746;2023-11-18T08:28:29;100895.40;;;1.00
69545;BMP180;56766;52.260;20.746;2023-11-18T08:30:56;100894.60;;;1.00
69545;BMP180;56766;52.260;20.746;2023-11-18T08:33:23;100900.60;;;1.00
69545;BMP180;56766;52.260;20.746;2023-11-18T08:35:53;100898.60;;;1.00
69545;BMP180;56766;52.260;20.746;2023-11-18T08:38:23;100901.40;;;1.00
69545;BMP180;56766;52.260;20.746;2023-11-18T08:40:50;100900.60;;;1.00
69545;BMP180;56766;52.260;20.746;2023-11-18T08:43:18;100906.00;;;1.00
69545;BMP180;56766;52.260;20.746;2023-11-18T08:45:44;100905.80;;;1.04
69545;BMP180;56766;52.260;20.746;2023-11-18T08:48:12;100907.00;;;1.10
69545;BMP180;56766;52.260;20.746;2023-11-18T08:50:39;100903.00;;;1.10
69545;BMP180;56766;52.260;20.746;2023-11-18T08:53:06;100902.00;;;1.12
69545;BMP180;56766;52.260;20.746;2023-11-18T08:55:36;100908.40;;;1.10
69545;BMP180;56766;52.260;20.746;2023-11-18T08:58:08;100907.20;;;1.14
69545;BMP180;56766;52.260;20.746;2023-11-18T09:00:56;100913.60;;;1.10
69545;BMP180;56766;52.260;20.746;2023-11-18T09:03:31;100921.40;;;1.10
69545;BMP180;56766;52.260;20.746;2023-11-18T09:06:06;100925.20;;;1.20
69545;BMP180;56766;52.260;20.746;2023-11-18T09:08:46;100931.40;;;1.20
69545;BMP180;56766;52.260;20.746;2023-11-18T09:11:22;100929.40;;;1.24
69545;BMP180;56766;52.260;20.746;2023-11-18T09:13:51;100934.40;;;1.30
69545;BMP180;56766;52.260;20.746;2023-11-18T09:16:20;100933.00;;;1.30
69545;BMP180;56766;52.260;20.746;2023-11-18T09:18:49;100935.80;;;1.40
69545;BMP180;56766;52.260;20.746;2023-11-18T09:21:17;100935.00;;;1.32
69545;BMP180;56766;52.260;20.746;2023-11-18T09:23:57;100936.20;;;1.30
69545;BMP180;56766;52.260;20.746;2023-11-18T09:26:34;100936.40;;;1.40
69545;BMP180;56766;52.260;20.746;2023-11-18T09:29:02;100937.80;;;1.40
69545;BMP180;56766;52.260;20.746;2023-11-18T09:31:29;100933.80;;;1.40
69545;BMP180;56766;52.260;20.746;2023-11-18T09:33:57;100931.40;;;1.40
69545;BMP180;56766;52.260;20.746;2023-11-18T09:36:25;100938.80;;;1.40
69545;BMP180;56766;52.260;20.746;2023-11-18T09:38:57;100940.00;;;1.40
69545;BMP180;56766;52.260;20.746;2023-11-18T09:41:24;100942.00;;;1.40
69545;BMP180;56766;52.260;20.746;2023-11-18T09:43:53;100940.00;;;1.46
69545;BMP180;56766;52.260;20.746;2023-11-18T09:48:59;100943.80;;;1.40
69545;BMP180;56766;52.260;20.746;2023-11-18T09:51:38;100939.60;;;1.40
69545;BMP180;56766;52.260;20.746;2023-11-18T09:54:25;100942.20;;;1.50
69545;BMP180;56766;52.260;20.746;2023-11-18T10:00:07;100934.40;;;1.50
69545;BMP180;56766;52.260;20.746;2023-11-18T10:02:50;100943.40;;;1.60
69545;BMP180;56766;52.260;20.746;2023-11-18T10:05:18;100943.60;;;1.60
69545;BMP180;56766;52.260;20.746;2023-11-18T10:07:47;100937.20;;;1.60
69545;BMP180;56766;52.260;20.746;2023-11-18T10:10:15;100938.40;;;1.70
69545;BMP180;56766;52.260;20.746;2023-11-18T10:12:51;100934.60;;;1.70
69545;BMP180;56766;52.260;20.746;2023-11-18T10:15:25;100930.00;;;1.70
69545;BMP180;56766;52.260;20.746;2023-11-18T10:17:55;100932.60;;;1.70
69545;BMP180;56766;52.260;20.746;2023-11-18T10:20:49;100939.20;;;1.76
69545;BMP180;56766;52.260;20.746;2023-11-18T10:23:26;100949.40;;;1.80
69545;BMP180;56766;52.260;20.746;2023-11-18T10:25:56;100948.20;;;1.70
69545;BMP180;56766;52.260;20.746;2023-11-18T10:28:31;100948.20;;;1.60
69545;BMP180;56766;52.260;20.746;2023-11-18T10:31:06;100945.80;;;1.60
69545;BMP180;56766;52.260;20.746;2023-11-18T10:33:39;100949.80;;;1.60
69545;BMP180;56766;52.260;20.746;2023-11-18T10:36:20;100950.60;;;1.60
69545;BMP180;56766;52.260;20.746;2023-11-18T10:38:52;100953.20;;;1.70
69545;BMP180;56766;52.260;20.746;2023-11-18T10:41:22;100950.20;;;1.70
69545;BMP180;56766;52.260;20.746;2023-11-18T10:44:08;100944.80;;;1.62
69545;BMP180;56766;52.260;20.746;2023-11-18T10:47:00;100941.60;;;1.60
69545;BMP180;56766;52.260;20.746;2023-11-18T10:49:29;100935.00;;;1.60
69545;BMP180;56766;52.260;20.746;2023-11-18T10:52:05;100938.80;;;1.60
69545;BMP180;56766;52.260;20.746;2023-11-18T10:54:34;100943.60;;;1.60
69545;BMP180;56766;52.260;20.746;2023-11-18T10:57:02;100950.60;;;1.60
69545;BMP180;56766;52.260;20.746;2023-11-18T10:59:33;100950.20;;;1.60
69545;BMP180;56766;52.260;20.746;2023-11-18T11:02:00;100952.60;;;1.62
69545;BMP180;56766;52.260;20.746;2023-11-18T11:04:43;100954.80;;;1.70
69545;BMP180;56766;52.260;20.746;2023-11-18T11:07:14;100957.60;;;1.70
69545;BMP180;56766;52.260;20.746;2023-11-18T11:09:42;100963.00;;;1.70
69545;BMP180;56766;52.260;20.746;2023-11-18T11:12:15;100964.00;;;1.68
69545;BMP180;56766;52.260;20.746;2023-11-18T11:14:59;100969.00;;;1.60
69545;BMP180;56766;52.260;20.746;2023-11-18T11:17:27;100971.60;;;1.50
69545;BMP180;56766;52.260;20.746;2023-11-18T11:20:06;100976.40;;;1.40
69545;BMP180;56766;52.260;20.746;2023-11-18T11:26:07;100989.60;;;1.30
69545;BMP180;56766;52.260;20.746;2023-11-18T11:28:58;100987.20;;;1.30
69545;BMP180;56766;52.260;20.746;2023-11-18T11:31:38;100983.60;;;1.30
69545;BMP180;56766;52.260;20.746;2023-11-18T11:34:19;100986.60;;;1.30
69545;BMP180;56766;52.260;20.746;2023-11-18T11:36:47;100984.40;;;1.30
69545;BMP180;56766;52.260;20.746;2023-11-18T11:39:19;100992.00;;;1.22
69545;BMP180;56766;52.260;20.746;2023-11-18T11:41:53;100994.20;;;1.20
69545;BMP180;56766;52.260;20.746;2023-11-18T11:44:23;100998.60;;;1.28
69545;BMP180;56766;52.260;20.746;2023-11-18T11:46:59;100998.00;;;1.30
69545;BMP180;56766;52.260;20.746;2023-11-18T11:49:38;101006.20;;;1.30
69545;BMP180;56766;52.260;20.746;2023-11-18T11:52:19;101008.20;;;1.40
69545;BMP180;56766;52.260;20.746;2023-11-18T11:55:31;101017.20;;;1.30
69545;BMP180;56766;52.260;20.746;2023-11-18T11:58:00;101019.20;;;1.30
69545;BMP180;56766;52.260;20.746;2023-11-18T12:00:27;101021.60;;;1.30
69545;BMP180;56766;52.260;20.746;2023-11-18T12:03:02;101021.80;;;1.30
69545;BMP180;56766;52.260;20.746;2023-11-18T12:05:31;101024.80;;;1.30
69545;BMP180;56766;52.260;20.746;2023-11-18T12:08:00;101029.20;;;1.30
69545;BMP180;56766;52.260;20.746;2023-11-18T12:10:30;101028.40;;;1.30
69545;BMP180;56766;52.260;20.746;2023-11-18T12:13:11;101032.40;;;1.30
69545;BMP180;56766;52.260;20.746;2023-11-18T12:15:54;101031.80;;;1.30
69545;BMP180;56766;52.260;20.746;2023-11-18T12:18:24;101039.40;;;1.30
69545;BMP180;56766;52.260;20.746;2023-11-18T12:20:51;101033.80;;;1.28
69545;BMP180;56766;52.260;20.746;2023-11-18T12:23:22;101039.60;;;1.20
69545;BMP180;56766;52.260;20.746;2023-11-18T12:25:51;101048.80;;;1.20
69545;BMP180;56766;52.260;20.746;2023-11-18T12:30:54;101051.60;;;1.20
69545;BMP180;56766;52.260;20.746;2023-11-18T12:39:59;101064.80;;;1.00
69545;BMP180;56766;52.260;20.746;2023-11-18T12:43:01;101070.80;;;1.00
69545;BMP180;56766;52.260;20.746;2023-11-18T12:49:03;101087.80;;;1.00
69545;BMP180;56766;52.260;20.746;2023-11-18T12:51:32;101086.20;;;0.98
69545;BMP180;56766;52.260;20.746;2023-11-18T12:54:03;101088.40;;;0.90
69545;BMP180;56766;52.260;20.746;2023-11-18T12:56:34;101089.20;;;0.80
69545;BMP180;56766;52.260;20.746;2023-11-18T12:59:01;101091.40;;;0.80
69545;BMP180;56766;52.260;20.746;2023-11-18T13:01:33;101097.20;;;0.76
69545;BMP180;56766;52.260;20.746;2023-11-18T13:04:03;101097.60;;;0.72
69545;BMP180;56766;52.260;20.746;2023-11-18T13:06:30;101102.20;;;0.70
69545;BMP180;56766;52.260;20.746;2023-11-18T13:08:57;101102.40;;;0.70
69545;BMP180;56766;52.260;20.746;2023-11-18T13:11:25;101100.00;;;0.70
69545;BMP180;56766;52.260;20.746;2023-11-18T13:13:52;101107.40;;;0.70
69545;BMP180;56766;52.260;20.746;2023-11-18T13:16:19;101109.80;;;0.70
69545;BMP180;56766;52.260;20.746;2023-11-18T13:18:48;101115.40;;;0.70
69545;BMP180;56766;52.260;20.746;2023-11-18T13:21:19;101117.40;;;0.70
69545;BMP180;56766;52.260;20.746;2023-11-18T13:23:52;101114.20;;;0.68
69545;BMP180;56766;52.260;20.746;2023-11-18T13:26:20;101115.80;;;0.62
69545;BMP180;56766;52.260;20.746;2023-11-18T13:28:47;101121.00;;;0.66
69545;BMP180;56766;52.260;20.746;2023-11-18T13:31:17;101124.60;;;0.66
69545;BMP180;56766;52.260;20.746;2023-11-18T13:33:47;101128.60;;;0.62
69545;BMP180;56766;52.260;20.746;2023-11-18T13:36:15;101132.40;;;0.60
69545;BMP180;56766;52.260;20.746;2023-11-18T13:38:42;101131.00;;;0.60
69545;BMP180;56766;52.260;20.746;2023-11-18T13:41:10;101129.40;;;0.60
69545;BMP180;56766;52.260;20.746;2023-11-18T13:43:46;101137.00;;;0.60
69545;BMP180;56766;52.260;20.746;2023-11-18T13:46:14;101138.60;;;0.60
69545;BMP180;56766;52.260;20.746;2023-11-18T13:48:41;101142.20;;;0.50
69545;BMP180;56766;52.260;20.746;2023-11-18T13:51:11;101145.60;;;0.50
69545;BMP180;56766;52.260;20.746;2023-11-18T13:53:42;101151.60;;;0.50
69545;BMP180;56766;52.260;20.746;2023-11-18T13:56:11;101151.60;;;0.50
69545;BMP180;56766;52.260;20.746;2023-11-18T13:58:39;101152.20;;;0.44
69545;BMP180;56766;52.260;20.746;2023-11-18T14:01:08;101149.60;;;0.48
69545;BMP180;56766;52.260;20.746;2023-11-18T14:03:37;101152.00;;;0.42
69545;BMP180;56766;52.260;20.746;2023-11-18T14:06:09;101152.80;;;0.40
69545;BMP180;56766;52.260;20.746;2023-11-18T14:08:44;101154.60;;;0.40
69545;BMP180;56766;52.260;20.746;2023-11-18T14:11:11;101152.00;;;0.40
69545;BMP180;56766;52.260;20.746;2023-11-18T14:13:37;101155.40;;;0.38
69545;BMP180;56766;52.260;20.746;2023-11-18T14:16:05;101157.60;;;0.38
69545;BMP180;56766;52.260;20.746;2023-11-18T14:18:35;101163.40;;;0.32
69545;BMP180;56766;52.260;20.746;2023-11-18T14:21:03;101159.80;;;0.30
69545;BMP180;56766;52.260;20.746;2023-11-18T14:23:32;101163.20;;;0.30
69545;BMP180;56766;52.260;20.746;2023-11-18T14:25:59;101169.80;;;0.30
69545;BMP180;56766;52.260;20.746;2023-11-18T14:28:25;101170.60;;;0.30
69545;BMP180;56766;52.260;20.746;2023-11-18T14:30:54;101174.40;;;0.30
69545;BMP180;56766;52.260;20.746;2023-11-18T14:33:20;101176.20;;;0.30
69545;BMP180;56766;52.260;20.746;2023-11-18T14:35:47;101175.00;;;0.20
69545;BMP180;56766;52.260;20.746;2023-11-18T14:38:14;101172.20;;;0.20
69545;BMP180;56766;52.260;20.746;2023-11-18T14:40:41;101174.00;;;0.20